createdAt,value
2023-03-26T00:01:54.664Z,3.63
2023-03-26T00:04:57.009Z,5.90
2023-03-26T00:07:59.191Z,4.63
2023-03-26T00:11:02.725Z,3.28
2023-03-26T00:14:05.709Z,3.22
2023-03-26T00:17:08.875Z,5.45
2023-03-26T00:20:12.343Z,4.53
2023-03-26T00:23:14.745Z,4.53
2023-03-26T00:26:17.795Z,12.70
2023-03-26T00:29:20.809Z,3.97
2023-03-26T00:32:28.581Z,5.05
2023-03-26T00:35:31.322Z,3.53
2023-03-26T00:38:39.441Z,7.18
2023-03-26T00:41:43.454Z,4.50
2023-03-26T00:44:46.934Z,7.85
2023-03-26T00:47:49.536Z,5.05
2023-03-26T00:50:51.568Z,4.22
2023-03-26T00:53:54.239Z,3.25
2023-03-26T00:56:56.516Z,6.13
2023-03-26T00:59:59.220Z,3.97
2023-03-26T01:03:02.808Z,4.15
2023-03-26T01:06:08.445Z,6.45
2023-03-26T01:09:19.171Z,4.85
2023-03-26T01:12:24.466Z,5.70
2023-03-26T01:15:29.969Z,3.53
2023-03-26T01:18:34.545Z,5.90
2023-03-26T01:21:38.759Z,5.17
2023-03-26T01:24:42.117Z,5.00
2023-03-26T01:27:51.642Z,5.00
2023-03-26T01:31:18.418Z,3.30
2023-03-26T01:34:41.997Z,4.68
2023-03-26T01:38:10.885Z,2.83
2023-03-26T01:41:34.845Z,4.07
2023-03-26T01:44:56.323Z,4.65
2023-03-26T01:48:00.676Z,3.85
2023-03-26T01:51:06.118Z,4.03
2023-03-26T01:54:17.182Z,3.40
2023-03-26T01:57:34.896Z,5.47
2023-03-26T02:01:12.922Z,6.32
2023-03-26T02:04:27.877Z,2.65
2023-03-26T02:10:44.516Z,8.35
2023-03-26T02:13:47.247Z,2.45
2023-03-26T02:16:52.078Z,3.10
2023-03-26T02:22:58.222Z,3.40
2023-03-26T02:26:01.228Z,4.18
2023-03-26T02:29:03.989Z,2.88
2023-03-26T02:32:09.331Z,5.65
2023-03-26T02:35:12.995Z,2.65
2023-03-26T02:38:15.314Z,2.28
2023-03-26T02:41:18.789Z,3.15
2023-03-26T02:44:31.700Z,3.33
2023-03-26T02:47:34.373Z,4.40
2023-03-26T02:50:55.265Z,2.60
2023-03-26T02:54:18.697Z,3.90
2023-03-26T02:57:21.173Z,2.42
2023-03-26T03:00:30.087Z,2.72
2023-03-26T03:07:16.528Z,2.30
2023-03-26T03:10:22.307Z,4.00
2023-03-26T03:13:47.509Z,4.13
2023-03-26T03:16:58.056Z,3.20
2023-03-26T03:20:01.127Z,2.70
2023-03-26T03:23:03.818Z,3.60
2023-03-26T03:26:13.376Z,4.22
2023-03-26T03:29:17.089Z,4.93
2023-03-26T03:32:20.125Z,4.82
2023-03-26T03:35:24.865Z,5.05
2023-03-26T03:38:32.124Z,4.65
2023-03-26T03:41:34.723Z,2.75
2023-03-26T03:44:40.776Z,2.90
2023-03-26T03:47:54.201Z,3.80
2023-03-26T03:51:04.685Z,2.40
2023-03-26T03:54:16.680Z,2.28
2023-03-26T03:57:22.170Z,2.70
2023-03-26T04:00:32.938Z,4.22
2023-03-26T04:03:56.143Z,2.13
2023-03-26T04:07:02.701Z,2.85
2023-03-26T04:10:16.938Z,3.45
2023-03-26T04:13:51.830Z,2.63
2023-03-26T04:17:09.247Z,2.97
2023-03-26T04:20:16.312Z,2.88
2023-03-26T04:23:22.788Z,1.73
2023-03-26T04:26:32.056Z,2.72
2023-03-26T04:29:46.608Z,1.98
2023-03-26T04:32:53.226Z,2.70
2023-03-26T04:36:01.630Z,2.17
2023-03-26T04:39:07.186Z,2.85
2023-03-26T04:42:28.807Z,2.63
2023-03-26T04:45:42.873Z,3.42
2023-03-26T04:48:45.326Z,4.65
2023-03-26T04:51:48.103Z,2.95
2023-03-26T04:55:24.966Z,2.25
2023-03-26T04:58:35.983Z,3.58
2023-03-26T05:01:38.394Z,2.60
2023-03-26T05:04:43.975Z,5.82
2023-03-26T05:07:46.855Z,3.47
2023-03-26T05:10:52.467Z,3.55
2023-03-26T05:14:03.114Z,3.60
2023-03-26T05:17:06.556Z,8.45
2023-03-26T05:20:21.314Z,5.63
2023-03-26T05:23:25.227Z,3.95
2023-03-26T05:26:38.285Z,5.65
2023-03-26T05:29:41.244Z,1.88
2023-03-26T05:32:43.730Z,4.78
2023-03-26T05:35:49.908Z,2.42
2023-03-26T05:38:53.021Z,3.90
2023-03-26T05:42:13.865Z,3.00
2023-03-26T05:45:36.693Z,2.28
2023-03-26T05:48:59.640Z,6.53
2023-03-26T05:52:08.747Z,2.58
2023-03-26T05:55:29.918Z,7.80
2023-03-26T05:59:04.600Z,5.18
2023-03-26T06:02:25.857Z,5.30
2023-03-26T06:06:07.980Z,3.28
2023-03-26T06:09:18.774Z,2.72
2023-03-26T06:12:21.855Z,4.23
2023-03-26T06:15:24.138Z,1.75
2023-03-26T06:18:57.235Z,3.13
2023-03-26T06:22:18.687Z,7.20
2023-03-26T06:25:47.952Z,4.63
2023-03-26T06:29:16.484Z,3.67
2023-03-26T06:32:38.790Z,7.65
2023-03-26T06:35:46.144Z,5.60
2023-03-26T06:38:51.349Z,5.82
2023-03-26T06:41:54.174Z,5.90
2023-03-26T06:45:11.813Z,7.55
2023-03-26T06:48:32.442Z,6.43
2023-03-26T06:52:03.938Z,5.47
2023-03-26T06:55:38.208Z,7.05
2023-03-26T06:58:59.650Z,5.20
2023-03-26T07:02:20.762Z,7.93
2023-03-26T07:05:42.487Z,7.72
2023-03-26T07:09:03.462Z,10.75
2023-03-26T07:12:26.525Z,6.03
2023-03-26T07:15:48.769Z,8.18
2023-03-26T07:19:18.132Z,8.25
2023-03-26T07:22:22.949Z,8.32
2023-03-26T07:25:52.529Z,12.55
2023-03-26T07:29:39.946Z,12.68
2023-03-26T07:32:58.325Z,8.48
2023-03-26T07:36:32.453Z,8.32
2023-03-26T07:40:08.581Z,11.15
2023-03-26T07:43:59.799Z,11.60
2023-03-26T07:47:36.084Z,8.80
2023-03-26T07:51:03.396Z,12.05
2023-03-26T07:54:24.801Z,13.05
2023-03-26T07:58:08.828Z,9.30
2023-03-26T08:04:44.602Z,10.15
2023-03-26T08:08:31.420Z,13.70
2023-03-26T08:12:05.937Z,14.25
2023-03-26T08:15:33.879Z,11.75
2023-03-26T08:19:10.975Z,17.52
2023-03-26T08:22:21.800Z,16.83
2023-03-26T08:25:37.821Z,13.70
2023-03-26T08:28:43.434Z,16.33
2023-03-26T08:31:48.846Z,19.30
2023-03-26T08:34:53.294Z,18.60
2023-03-26T08:37:55.571Z,15.85
2023-03-26T08:41:15.203Z,15.38
2023-03-26T08:44:30.385Z,15.45
2023-03-26T08:48:08.201Z,14.52
2023-03-26T08:51:31.989Z,11.55
2023-03-26T08:54:43.423Z,14.48
2023-03-26T08:57:48.357Z,15.57
2023-03-26T09:01:11.717Z,26.90
2023-03-26T09:04:28.972Z,11.07
2023-03-26T09:07:56.690Z,16.55
2023-03-26T09:11:26.519Z,10.40
2023-03-26T09:14:43.182Z,7.90
2023-03-26T09:18:17.687Z,15.40
2023-03-26T09:21:25.728Z,14.93
2023-03-26T09:24:37.067Z,19.45
2023-03-26T09:27:58.240Z,16.02
2023-03-26T09:31:06.632Z,11.82
2023-03-26T09:34:21.557Z,17.35
2023-03-26T09:37:56.963Z,12.70
2023-03-26T09:41:02.054Z,12.80
2023-03-26T09:44:35.235Z,14.05
2023-03-26T09:47:38.864Z,12.77
2023-03-26T09:50:57.027Z,13.25
2023-03-26T09:54:15.491Z,15.48
2023-03-26T09:58:03.607Z,16.10
2023-03-26T10:01:34.096Z,13.85
2023-03-26T10:05:14.566Z,13.68
2023-03-26T10:08:20.532Z,11.50
2023-03-26T10:11:51.204Z,17.90
2023-03-26T10:15:16.260Z,14.02
2023-03-26T10:18:49.585Z,14.25
2023-03-26T10:21:52.437Z,10.05
2023-03-26T10:25:32.269Z,12.27
2023-03-26T10:29:00.852Z,13.48
2023-03-26T10:32:34.137Z,15.18
2023-03-26T10:36:07.671Z,9.65
2023-03-26T10:39:44.128Z,15.07
2023-03-26T10:42:58.965Z,17.58
2023-03-26T10:46:32.879Z,13.65
2023-03-26T10:49:54.340Z,11.65
2023-03-26T10:53:15.115Z,27.27
2023-03-26T10:56:40.446Z,8.10
2023-03-26T10:59:42.469Z,13.30
2023-03-26T11:03:04.887Z,14.60
2023-03-26T11:06:11.825Z,12.88
2023-03-26T11:09:23.386Z,18.95
2023-03-26T11:12:46.686Z,14.65
2023-03-26T11:15:59.370Z,17.25
2023-03-26T11:19:43.766Z,15.98
2023-03-26T11:23:20.720Z,17.90
2023-03-26T11:26:30.366Z,13.13
2023-03-26T11:29:44.991Z,20.58
2023-03-26T11:32:53.550Z,14.13
2023-03-26T11:36:02.056Z,9.77
2023-03-26T11:39:10.084Z,12.30
2023-03-26T11:42:15.585Z,12.35
2023-03-26T11:45:25.916Z,11.88
2023-03-26T11:48:47.270Z,22.10
2023-03-26T11:51:49.483Z,10.55
2023-03-26T11:54:52.736Z,7.43
2023-03-26T11:57:59.543Z,10.68
2023-03-26T12:01:22.972Z,8.98
2023-03-26T12:04:58.644Z,11.20
2023-03-26T12:08:19.179Z,13.00
2023-03-26T12:11:33.862Z,9.68
2023-03-26T12:14:43.022Z,10.38
2023-03-26T12:17:47.396Z,7.35
2023-03-26T12:21:16.330Z,6.20
2023-03-26T12:24:28.812Z,15.18
2023-03-26T12:27:33.779Z,8.95
2023-03-26T12:33:42.337Z,9.07
2023-03-26T12:36:53.228Z,8.80
2023-03-26T12:40:26.201Z,5.32
2023-03-26T12:44:54.488Z,8.85
2023-03-26T12:48:00.604Z,8.02
2023-03-26T12:51:11.192Z,6.85
2023-03-26T12:54:29.018Z,7.03
2023-03-26T12:57:39.302Z,8.82
2023-03-26T13:01:11.343Z,9.68
2023-03-26T13:04:51.875Z,10.63
2023-03-26T13:08:22.729Z,8.48
2023-03-26T13:11:34.380Z,5.95
2023-03-26T13:15:06.883Z,10.60
2023-03-26T13:18:27.585Z,10.52
2023-03-26T13:21:51.770Z,9.70
2023-03-26T13:28:46.018Z,11.77
2023-03-26T13:32:16.846Z,10.52
2023-03-26T13:35:36.285Z,12.13
2023-03-26T13:39:05.042Z,9.15
2023-03-26T13:42:27.252Z,8.88
2023-03-26T13:46:06.589Z,6.65
2023-03-26T13:49:15.581Z,6.65
2023-03-26T13:52:42.680Z,12.48
2023-03-26T13:55:53.233Z,14.18
2023-03-26T13:59:30.167Z,9.27
2023-03-26T14:02:37.886Z,10.48
2023-03-26T14:05:47.531Z,10.40
2023-03-26T14:09:10.407Z,7.07
2023-03-26T14:12:20.835Z,11.82
2023-03-26T14:15:56.289Z,14.43
2023-03-26T14:19:33.976Z,7.35
2023-03-26T14:23:21.954Z,13.00
2023-03-26T14:26:37.672Z,15.85
2023-03-26T14:30:04.534Z,15.18
2023-03-26T14:33:27.237Z,5.35
2023-03-26T14:37:00.677Z,5.43
2023-03-26T14:40:33.455Z,5.32
2023-03-26T14:44:05.709Z,5.20
2023-03-26T14:47:11.173Z,6.07
2023-03-26T14:50:43.147Z,7.85
2023-03-26T14:53:53.625Z,10.68
2023-03-26T14:57:17.897Z,8.30
2023-03-26T15:01:04.494Z,9.93
2023-03-26T15:04:34.898Z,10.55
2023-03-26T15:07:56.649Z,15.35
2023-03-26T15:11:18.401Z,9.93
2023-03-26T15:14:43.674Z,7.35
2023-03-26T15:18:13.614Z,10.80
2023-03-26T15:21:51.291Z,9.45
2023-03-26T15:25:19.163Z,12.80
2023-03-26T15:28:36.579Z,9.73
2023-03-26T15:31:55.833Z,8.27
2023-03-26T15:35:24.303Z,13.43
2023-03-26T15:38:28.516Z,9.05
2023-03-26T15:41:41.311Z,7.23
2023-03-26T15:45:11.755Z,8.77
2023-03-26T15:48:13.630Z,12.77
2023-03-26T15:51:46.888Z,8.48
2023-03-26T15:55:28.385Z,7.00
2023-03-26T15:58:48.082Z,9.57
2023-03-26T16:02:12.143Z,5.50
2023-03-26T16:05:24.667Z,7.43
2023-03-26T16:08:56.329Z,7.22
2023-03-26T16:12:30.543Z,9.75
2023-03-26T16:15:33.678Z,5.03
2023-03-26T16:18:37.282Z,5.20
2023-03-26T16:21:56.939Z,9.55
2023-03-26T16:25:27.853Z,8.85
2023-03-26T16:28:35.992Z,8.75
2023-03-26T16:31:59.317Z,9.38
2023-03-26T16:35:05.884Z,12.50
2023-03-26T16:38:13.962Z,8.90
2023-03-26T16:41:24.811Z,4.18
2023-03-26T16:44:52.214Z,8.98
2023-03-26T16:48:01.691Z,7.43
2023-03-26T16:51:23.423Z,6.00
2023-03-26T16:54:28.511Z,12.82
2023-03-26T16:57:42.634Z,9.02
2023-03-26T17:01:06.525Z,6.43
2023-03-26T17:04:24.785Z,8.85
2023-03-26T17:07:39.111Z,7.25
2023-03-26T17:10:56.714Z,7.45
2023-03-26T17:14:18.183Z,8.02
2023-03-26T17:17:43.184Z,8.27
2023-03-26T17:21:03.769Z,10.68
2023-03-26T17:24:16.755Z,13.18
2023-03-26T17:27:52.437Z,5.57
2023-03-26T17:31:19.843Z,11.55
2023-03-26T17:34:38.400Z,7.68
2023-03-26T17:37:44.944Z,10.43
2023-03-26T17:40:56.454Z,7.82
2023-03-26T17:43:59.529Z,9.70
2023-03-26T17:47:04.797Z,9.10
2023-03-26T17:50:16.593Z,11.00
2023-03-26T17:53:28.570Z,11.70
2023-03-26T17:56:32.872Z,7.50
2023-03-26T17:59:39.326Z,10.87
2023-03-26T18:02:47.741Z,9.98
2023-03-26T18:05:56.947Z,9.48
2023-03-26T18:09:12.233Z,7.07
2023-03-26T18:12:48.943Z,7.30
2023-03-26T18:16:21.884Z,9.75
2023-03-26T18:19:25.024Z,4.47
2023-03-26T18:22:30.388Z,4.35
2023-03-26T18:25:34.142Z,8.30
2023-03-26T18:28:45.473Z,9.13
2023-03-26T18:32:00.827Z,12.32
2023-03-26T18:35:21.417Z,5.97
2023-03-26T18:38:35.974Z,9.60
2023-03-26T18:41:42.896Z,5.93
2023-03-26T18:44:47.775Z,7.85
2023-03-26T18:47:57.248Z,7.90
2023-03-26T18:51:05.996Z,5.45
2023-03-26T18:54:17.213Z,6.28
2023-03-26T18:57:29.404Z,5.45
2023-03-26T19:00:32.249Z,7.82
2023-03-26T19:03:37.690Z,6.72
2023-03-26T19:06:42.446Z,10.57
2023-03-26T19:09:45.327Z,10.38
2023-03-26T19:12:58.967Z,9.23
2023-03-26T19:16:08.025Z,12.88
2023-03-26T19:19:19.166Z,11.02
2023-03-26T19:22:23.474Z,7.47
2023-03-26T19:28:37.825Z,4.78
2023-03-26T19:31:42.547Z,7.50
2023-03-26T19:34:47.085Z,9.25
2023-03-26T19:37:51.929Z,10.70
2023-03-26T19:40:58.107Z,12.75
2023-03-26T19:44:03.839Z,6.40
2023-03-26T19:47:15.126Z,10.15
2023-03-26T19:50:25.413Z,7.22
2023-03-26T19:53:43.136Z,6.35
2023-03-26T19:56:45.754Z,5.15
2023-03-26T19:59:50.957Z,8.43
2023-03-26T20:02:53.631Z,7.03
2023-03-26T20:05:56.646Z,13.25
2023-03-26T20:09:00.250Z,7.57
2023-03-26T20:12:02.718Z,10.35
2023-03-26T20:15:22.680Z,6.55
2023-03-26T20:18:25.781Z,3.67
2023-03-26T20:21:29.772Z,8.50
2023-03-26T20:24:32.820Z,8.25
2023-03-26T20:27:35.772Z,9.55
2023-03-26T20:30:38.669Z,6.75
2023-03-26T20:33:41.407Z,7.90
2023-03-26T20:36:44.209Z,7.40
2023-03-26T20:39:47.924Z,7.93
2023-03-26T20:42:50.163Z,4.88
2023-03-26T20:45:54.174Z,4.50
2023-03-26T20:49:00.112Z,9.65
2023-03-26T20:52:02.896Z,10.20
2023-03-26T20:55:06.643Z,10.82
2023-03-26T20:58:18.059Z,5.82
2023-03-26T21:01:34.180Z,9.70
2023-03-26T21:04:36.677Z,5.85
2023-03-26T21:07:38.866Z,5.47
2023-03-26T21:10:42.090Z,6.63
2023-03-26T21:13:50.035Z,10.50
2023-03-26T21:16:52.900Z,4.22
2023-03-26T21:19:55.449Z,6.40
2023-03-26T21:23:00.974Z,9.30
2023-03-26T21:26:17.844Z,5.82
2023-03-26T21:29:20.713Z,2.90
2023-03-26T21:32:23.438Z,2.05
2023-03-26T21:35:26.832Z,6.05
2023-03-26T21:38:32.502Z,8.35
2023-03-26T21:41:47.948Z,9.18
2023-03-26T21:44:50.287Z,5.72
2023-03-26T21:47:53.331Z,4.63
2023-03-26T21:50:56.179Z,14.20
2023-03-26T21:53:59.308Z,7.88
2023-03-26T21:57:20.337Z,10.82
2023-03-26T22:00:28.218Z,5.50
2023-03-26T22:04:16.729Z,9.57
2023-03-26T22:07:26.334Z,5.63
2023-03-26T22:10:29.636Z,8.80
2023-03-26T22:13:32.692Z,9.93
2023-03-26T22:16:35.175Z,3.92
2023-03-26T22:19:38.302Z,6.18
2023-03-26T22:22:49.247Z,7.07
2023-03-26T22:25:52.604Z,8.60
2023-03-26T22:28:55.515Z,5.13
2023-03-26T22:31:58.731Z,5.18
2023-03-26T22:35:00.921Z,5.38
2023-03-26T22:38:04.211Z,6.38
2023-03-26T22:41:06.454Z,10.13
2023-03-26T22:44:19.852Z,4.85
2023-03-26T22:47:22.624Z,6.10
2023-03-26T22:50:26.128Z,13.85
2023-03-26T22:53:29.098Z,7.18
2023-03-26T22:56:32.243Z,5.22
2023-03-26T22:59:34.301Z,6.50
2023-03-26T23:02:37.086Z,3.78
2023-03-26T23:05:39.535Z,4.38
2023-03-26T23:08:42.544Z,2.72
2023-03-26T23:11:45.237Z,1.70
2023-03-26T23:14:52.695Z,11.15
2023-03-26T23:17:55.326Z,2.25
2023-03-26T23:20:58.696Z,1.65
2023-03-26T23:24:01.028Z,7.32
2023-03-26T23:27:05.115Z,1.02
2023-03-26T23:30:08.302Z,3.50
2023-03-26T23:33:11.736Z,5.50
2023-03-26T23:36:18.713Z,2.95
2023-03-26T23:39:22.241Z,2.15
2023-03-26T23:42:29.137Z,7.22
2023-03-26T23:45:32.212Z,6.53
2023-03-26T23:48:34.354Z,6.43
2023-03-26T23:51:37.092Z,6.97
2023-03-26T23:54:41.124Z,3.75
2023-03-26T23:57:43.605Z,4.28
